sensor_id;sensor_type;location;lat;lon;timestamp;temperature;humidity
29093;DHT22;16167;48.768;14.984;2022-08-01T00:00:51;18.60;1.00
29093;DHT22;16167;48.768;14.984;2022-08-01T00:03:19;18.60;1.00
29093;DHT22;16167;48.768;14.984;2022-08-01T00:05:47;18.50;1.00
29093;DHT22;16167;48.768;14.984;2022-08-01T00:08:15;18.60;1.00
29093;DHT22;16167;48.768;14.984;2022-08-01T00:10:43;18.60;1.00
29093;DHT22;16167;48.768;14.984;2022-08-01T00:13:11;18.60;1.00
29093;DHT22;16167;48.768;14.984;2022-08-01T00:15:39;18.50;1.00
29093;DHT22;16167;48.768;14.984;2022-08-01T00:18:20;18.60;1.00
29093;DHT22;16167;48.768;14.984;2022-08-01T00:20:48;18.60;1.00
29093;DHT22;16167;48.768;14.984;2022-08-01T00:23:16;18.60;1.00
29093;DHT22;16167;48.768;14.984;2022-08-01T00:25:44;18.60;1.00
29093;DHT22;16167;48.768;14.984;2022-08-01T00:28:12;18.60;1.00
29093;DHT22;16167;48.768;14.984;2022-08-01T00:30:40;18.60;1.00
29093;DHT22;16167;48.768;14.984;2022-08-01T00:33:08;18.60;1.00
29093;DHT22;16167;48.768;14.984;2022-08-01T00:35:38;18.70;1.00
29093;DHT22;16167;48.768;14.984;2022-08-01T00:38:05;18.70;1.00
29093;DHT22;16167;48.768;14.984;2022-08-01T00:40:33;18.70;1.00
29093;DHT22;16167;48.768;14.984;2022-08-01T00:43:02;18.70;1.00
29093;DHT22;16167;48.768;14.984;2022-08-01T00:45:30;18.70;1.00
29093;DHT22;16167;48.768;14.984;2022-08-01T00:47:58;18.70;1.00
29093;DHT22;16167;48.768;14.984;2022-08-01T00:50:25;18.70;1.00
29093;DHT22;16167;48.768;14.984;2022-08-01T00:52:55;18.70;1.00
29093;DHT22;16167;48.768;14.984;2022-08-01T00:55:24;18.60;1.00
29093;DHT22;16167;48.768;14.984;2022-08-01T00:57:52;18.70;1.00
29093;DHT22;16167;48.768;14.984;2022-08-01T01:00:32;18.70;1.00
29093;DHT22;16167;48.768;14.984;2022-08-01T01:03:21;18.70;1.00
29093;DHT22;16167;48.768;14.984;2022-08-01T01:06:14;18.70;1.00
29093;DHT22;16167;48.768;14.984;2022-08-01T01:08:53;18.70;1.00
29093;DHT22;16167;48.768;14.984;2022-08-01T01:11:25;18.70;1.00
29093;DHT22;16167;48.768;14.984;2022-08-01T01:13:54;18.60;1.00
29093;DHT22;16167;48.768;14.984;2022-08-01T01:16:25;18.60;1.00
29093;DHT22;16167;48.768;14.984;2022-08-01T01:18:54;18.60;1.00
29093;DHT22;16167;48.768;14.984;2022-08-01T01:21:34;18.60;1.00
29093;DHT22;16167;48.768;14.984;2022-08-01T01:24:04;18.60;1.00
29093;DHT22;16167;48.768;14.984;2022-08-01T01:26:39;18.60;1.00
29093;DHT22;16167;48.768;14.984;2022-08-01T01:29:13;18.60;1.00
29093;DHT22;16167;48.768;14.984;2022-08-01T01:31:44;18.50;1.00
29093;DHT22;16167;48.768;14.984;2022-08-01T01:34:13;18.50;1.00
29093;DHT22;16167;48.768;14.984;2022-08-01T01:36:42;18.50;1.00
29093;DHT22;16167;48.768;14.984;2022-08-01T01:39:11;18.50;1.00
29093;DHT22;16167;48.768;14.984;2022-08-01T01:41:40;18.50;1.00
29093;DHT22;16167;48.768;14.984;2022-08-01T01:44:09;18.50;1.00
29093;DHT22;16167;48.768;14.984;2022-08-01T01:46:39;18.50;1.00
29093;DHT22;16167;48.768;14.984;2022-08-01T01:49:07;18.50;1.00
29093;DHT22;16167;48.768;14.984;2022-08-01T01:51:37;18.40;1.00
29093;DHT22;16167;48.768;14.984;2022-08-01T01:54:05;18.40;1.00
29093;DHT22;16167;48.768;14.984;2022-08-01T01:56:34;18.40;1.00
29093;DHT22;16167;48.768;14.984;2022-08-01T01:59:15;18.40;1.00
29093;DHT22;16167;48.768;14.984;2022-08-01T02:01:52;18.40;1.00
29093;DHT22;16167;48.768;14.984;2022-08-01T02:04:32;18.40;1.00
29093;DHT22;16167;48.768;14.984;2022-08-01T02:07:00;18.30;1.00
29093;DHT22;16167;48.768;14.984;2022-08-01T02:09:29;18.30;1.00
29093;DHT22;16167;48.768;14.984;2022-08-01T02:11:58;18.30;1.00
29093;DHT22;16167;48.768;14.984;2022-08-01T02:14:34;18.20;1.00
29093;DHT22;16167;48.768;14.984;2022-08-01T02:17:04;18.20;1.00
29093;DHT22;16167;48.768;14.984;2022-08-01T02:19:32;18.20;1.00
29093;DHT22;16167;48.768;14.984;2022-08-01T02:22:04;18.20;1.00
29093;DHT22;16167;48.768;14.984;2022-08-01T02:24:35;18.10;1.00
29093;DHT22;16167;48.768;14.984;2022-08-01T02:27:04;18.10;1.00
29093;DHT22;16167;48.768;14.984;2022-08-01T02:29:36;18.10;1.00
29093;DHT22;16167;48.768;14.984;2022-08-01T02:32:07;18.10;1.00
29093;DHT22;16167;48.768;14.984;2022-08-01T02:34:36;18.10;1.00
29093;DHT22;16167;48.768;14.984;2022-08-01T02:37:04;18.10;1.00
29093;DHT22;16167;48.768;14.984;2022-08-01T02:39:33;18.10;1.00
29093;DHT22;16167;48.768;14.984;2022-08-01T02:42:04;18.10;1.00
29093;DHT22;16167;48.768;14.984;2022-08-01T02:44:34;18.10;1.00
29093;DHT22;16167;48.768;14.984;2022-08-01T02:47:03;18.10;1.00
29093;DHT22;16167;48.768;14.984;2022-08-01T02:49:33;18.10;1.00
29093;DHT22;16167;48.768;14.984;2022-08-01T02:52:01;18.10;1.00
29093;DHT22;16167;48.768;14.984;2022-08-01T02:54:32;18.00;1.00
29093;DHT22;16167;48.768;14.984;2022-08-01T02:57:00;18.00;1.00
29093;DHT22;16167;48.768;14.984;2022-08-01T02:59:30;18.00;1.00
29093;DHT22;16167;48.768;14.984;2022-08-01T03:01:59;17.90;1.00
29093;DHT22;16167;48.768;14.984;2022-08-01T03:04:29;18.00;3.60
29093;DHT22;16167;48.768;14.984;2022-08-01T03:06:59;18.00;1.40
29093;DHT22;16167;48.768;14.984;2022-08-01T03:09:28;18.00;2.60
29093;DHT22;16167;48.768;14.984;2022-08-01T03:11:57;17.90;1.00
29093;DHT22;16167;48.768;14.984;2022-08-01T03:14:26;17.90;1.00
29093;DHT22;16167;48.768;14.984;2022-08-01T03:16:55;17.90;1.00
29093;DHT22;16167;48.768;14.984;2022-08-01T03:19:24;17.90;1.00
29093;DHT22;16167;48.768;14.984;2022-08-01T03:21:54;17.80;1.00
29093;DHT22;16167;48.768;14.984;2022-08-01T03:24:26;17.80;1.00
29093;DHT22;16167;48.768;14.984;2022-08-01T03:26:54;17.80;1.00
29093;DHT22;16167;48.768;14.984;2022-08-01T03:29:24;17.70;1.00
29093;DHT22;16167;48.768;14.984;2022-08-01T03:31:53;17.60;1.00
29093;DHT22;16167;48.768;14.984;2022-08-01T03:34:21;17.60;1.00
29093;DHT22;16167;48.768;14.984;2022-08-01T03:36:56;17.50;2.70
29093;DHT22;16167;48.768;14.984;2022-08-01T03:39:29;17.40;1.00
29093;DHT22;16167;48.768;14.984;2022-08-01T03:41:59;17.40;1.00
29093;DHT22;16167;48.768;14.984;2022-08-01T03:44:28;17.30;1.70
29093;DHT22;16167;48.768;14.984;2022-08-01T03:47:02;17.30;10.60
29093;DHT22;16167;48.768;14.984;2022-08-01T03:49:32;17.20;9.90
29093;DHT22;16167;48.768;14.984;2022-08-01T03:52:01;17.20;7.70
29093;DHT22;16167;48.768;14.984;2022-08-01T03:54:33;17.20;13.20
29093;DHT22;16167;48.768;14.984;2022-08-01T03:57:02;17.20;16.00
29093;DHT22;16167;48.768;14.984;2022-08-01T03:59:31;17.10;20.40
29093;DHT22;16167;48.768;14.984;2022-08-01T04:01:59;17.10;21.40
29093;DHT22;16167;48.768;14.984;2022-08-01T04:04:27;17.10;21.30
29093;DHT22;16167;48.768;14.984;2022-08-01T04:06:56;17.10;19.80
29093;DHT22;16167;48.768;14.984;2022-08-01T04:09:23;17.00;21.50
29093;DHT22;16167;48.768;14.984;2022-08-01T04:11:53;17.10;26.20
29093;DHT22;16167;48.768;14.984;2022-08-01T04:14:21;17.10;29.40
29093;DHT22;16167;48.768;14.984;2022-08-01T04:16:48;17.10;31.20
29093;DHT22;16167;48.768;14.984;2022-08-01T04:19:16;17.10;30.70
29093;DHT22;16167;48.768;14.984;2022-08-01T04:21:44;17.10;31.40
29093;DHT22;16167;48.768;14.984;2022-08-01T04:24:13;17.20;36.70
29093;DHT22;16167;48.768;14.984;2022-08-01T04:26:44;17.20;27.40
29093;DHT22;16167;48.768;14.984;2022-08-01T04:29:14;17.20;20.90
29093;DHT22;16167;48.768;14.984;2022-08-01T04:31:43;17.30;17.20
29093;DHT22;16167;48.768;14.984;2022-08-01T04:34:12;17.30;20.40
29093;DHT22;16167;48.768;14.984;2022-08-01T04:36:41;17.30;22.60
29093;DHT22;16167;48.768;14.984;2022-08-01T04:39:10;17.40;21.40
29093;DHT22;16167;48.768;14.984;2022-08-01T04:41:39;17.30;20.00
29093;DHT22;16167;48.768;14.984;2022-08-01T04:44:07;17.30;17.20
29093;DHT22;16167;48.768;14.984;2022-08-01T04:46:36;17.30;11.10
29093;DHT22;16167;48.768;14.984;2022-08-01T04:49:05;17.30;12.90
29093;DHT22;16167;48.768;14.984;2022-08-01T04:51:33;17.30;5.90
29093;DHT22;16167;48.768;14.984;2022-08-01T04:54:01;17.30;1.00
29093;DHT22;16167;48.768;14.984;2022-08-01T04:56:29;17.30;1.00
29093;DHT22;16167;48.768;14.984;2022-08-01T04:58:57;17.20;1.90
29093;DHT22;16167;48.768;14.984;2022-08-01T05:01:49;17.30;15.70
29093;DHT22;16167;48.768;14.984;2022-08-01T05:04:18;17.30;15.00
29093;DHT22;16167;48.768;14.984;2022-08-01T05:06:46;17.40;20.50
29093;DHT22;16167;48.768;14.984;2022-08-01T05:09:14;17.40;25.20
29093;DHT22;16167;48.768;14.984;2022-08-01T05:11:42;17.60;24.00
29093;DHT22;16167;48.768;14.984;2022-08-01T05:14:10;17.70;9.70
29093;DHT22;16167;48.768;14.984;2022-08-01T05:16:38;17.80;1.00
29093;DHT22;16167;48.768;14.984;2022-08-01T05:19:07;18.00;5.40
29093;DHT22;16167;48.768;14.984;2022-08-01T05:21:35;18.10;1.00
29093;DHT22;16167;48.768;14.984;2022-08-01T05:24:04;18.20;1.00
29093;DHT22;16167;48.768;14.984;2022-08-01T05:26:32;18.30;6.70
29093;DHT22;16167;48.768;14.984;2022-08-01T05:29:02;18.40;1.00
29093;DHT22;16167;48.768;14.984;2022-08-01T05:31:29;18.50;1.00
29093;DHT22;16167;48.768;14.984;2022-08-01T05:34:00;18.60;1.00
29093;DHT22;16167;48.768;14.984;2022-08-01T05:36:30;18.70;1.00
29093;DHT22;16167;48.768;14.984;2022-08-01T05:38:58;18.80;1.00
29093;DHT22;16167;48.768;14.984;2022-08-01T05:41:25;18.90;1.00
29093;DHT22;16167;48.768;14.984;2022-08-01T05:43:54;18.90;2.90
29093;DHT22;16167;48.768;14.984;2022-08-01T05:46:21;19.00;5.80
29093;DHT22;16167;48.768;14.984;2022-08-01T05:48:53;19.00;12.70
29093;DHT22;16167;48.768;14.984;2022-08-01T05:51:20;19.00;5.40
29093;DHT22;16167;48.768;14.984;2022-08-01T05:53:50;19.10;1.00
29093;DHT22;16167;48.768;14.984;2022-08-01T05:56:18;19.10;1.10
29093;DHT22;16167;48.768;14.984;2022-08-01T05:58:45;19.20;1.00
29093;DHT22;16167;48.768;14.984;2022-08-01T06:01:13;19.30;1.00
29093;DHT22;16167;48.768;14.984;2022-08-01T06:03:41;19.30;1.00
29093;DHT22;16167;48.768;14.984;2022-08-01T06:06:09;19.40;1.00
29093;DHT22;16167;48.768;14.984;2022-08-01T06:08:37;19.50;1.00
29093;DHT22;16167;48.768;14.984;2022-08-01T06:11:06;19.60;1.00
29093;DHT22;16167;48.768;14.984;2022-08-01T06:13:34;19.70;1.00
29093;DHT22;16167;48.768;14.984;2022-08-01T06:16:14;19.80;1.00
29093;DHT22;16167;48.768;14.984;2022-08-01T06:18:42;19.90;1.00
29093;DHT22;16167;48.768;14.984;2022-08-01T06:21:10;20.00;1.00
29093;DHT22;16167;48.768;14.984;2022-08-01T06:23:37;20.10;1.00
29093;DHT22;16167;48.768;14.984;2022-08-01T06:26:10;20.20;1.00
29093;DHT22;16167;48.768;14.984;2022-08-01T06:28:38;20.30;1.00
29093;DHT22;16167;48.768;14.984;2022-08-01T06:31:06;20.40;1.00
29093;DHT22;16167;48.768;14.984;2022-08-01T06:33:34;20.60;1.00
29093;DHT22;16167;48.768;14.984;2022-08-01T06:36:02;20.70;1.00
29093;DHT22;16167;48.768;14.984;2022-08-01T06:38:30;21.00;1.00
29093;DHT22;16167;48.768;14.984;2022-08-01T06:40:58;21.30;1.00
29093;DHT22;16167;48.768;14.984;2022-08-01T06:43:27;21.50;1.00
29093;DHT22;16167;48.768;14.984;2022-08-01T06:45:55;21.70;1.00
29093;DHT22;16167;48.768;14.984;2022-08-01T06:48:23;21.80;1.00
29093;DHT22;16167;48.768;14.984;2022-08-01T06:50:51;22.00;1.00
29093;DHT22;16167;48.768;14.984;2022-08-01T06:53:35;22.20;1.00
29093;DHT22;16167;48.768;14.984;2022-08-01T06:56:03;22.60;1.00
29093;DHT22;16167;48.768;14.984;2022-08-01T06:58:32;22.70;1.00
29093;DHT22;16167;48.768;14.984;2022-08-01T07:01:01;22.80;1.00
29093;DHT22;16167;48.768;14.984;2022-08-01T07:03:32;22.90;1.00
29093;DHT22;16167;48.768;14.984;2022-08-01T07:06:20;23.00;1.00
29093;DHT22;16167;48.768;14.984;2022-08-01T07:08:48;23.00;1.00
29093;DHT22;16167;48.768;14.984;2022-08-01T07:11:16;23.10;1.00
29093;DHT22;16167;48.768;14.984;2022-08-01T07:13:46;23.20;1.00
29093;DHT22;16167;48.768;14.984;2022-08-01T07:16:14;23.40;1.00
29093;DHT22;16167;48.768;14.984;2022-08-01T07:18:42;23.60;1.00
29093;DHT22;16167;48.768;14.984;2022-08-01T07:21:10;23.80;1.00
29093;DHT22;16167;48.768;14.984;2022-08-01T07:23:58;24.10;1.00
29093;DHT22;16167;48.768;14.984;2022-08-01T07:26:26;24.40;1.00
29093;DHT22;16167;48.768;14.984;2022-08-01T07:28:55;24.60;1.00
29093;DHT22;16167;48.768;14.984;2022-08-01T07:31:23;24.50;1.00
29093;DHT22;16167;48.768;14.984;2022-08-01T07:33:56;24.60;1.00
29093;DHT22;16167;48.768;14.984;2022-08-01T07:36:23;24.70;1.00
29093;DHT22;16167;48.768;14.984;2022-08-01T07:38:51;24.90;1.00
29093;DHT22;16167;48.768;14.984;2022-08-01T07:41:19;25.00;1.00
29093;DHT22;16167;48.768;14.984;2022-08-01T07:44:08;25.20;1.00
29093;DHT22;16167;48.768;14.984;2022-08-01T07:46:37;25.50;1.00
29093;DHT22;16167;48.768;14.984;2022-08-01T07:49:04;25.70;1.00
29093;DHT22;16167;48.768;14.984;2022-08-01T07:51:32;25.90;1.00
29093;DHT22;16167;48.768;14.984;2022-08-01T07:54:00;26.10;1.00
29093;DHT22;16167;48.768;14.984;2022-08-01T07:56:28;26.50;1.00
29093;DHT22;16167;48.768;14.984;2022-08-01T07:58:56;26.80;1.00
29093;DHT22;16167;48.768;14.984;2022-08-01T08:01:25;27.10;1.00
29093;DHT22;16167;48.768;14.984;2022-08-01T08:03:53;27.00;1.00
29093;DHT22;16167;48.768;14.984;2022-08-01T08:06:21;26.90;1.00
29093;DHT22;16167;48.768;14.984;2022-08-01T08:08:49;26.90;1.00
29093;DHT22;16167;48.768;14.984;2022-08-01T08:11:19;27.00;1.00
29093;DHT22;16167;48.768;14.984;2022-08-01T08:13:47;27.10;1.00
29093;DHT22;16167;48.768;14.984;2022-08-01T08:16:15;27.30;1.00
29093;DHT22;16167;48.768;14.984;2022-08-01T08:18:45;27.60;1.00
29093;DHT22;16167;48.768;14.984;2022-08-01T08:21:13;27.70;1.00
29093;DHT22;16167;48.768;14.984;2022-08-01T08:23:41;27.50;1.00
29093;DHT22;16167;48.768;14.984;2022-08-01T08:26:26;27.70;1.00
29093;DHT22;16167;48.768;14.984;2022-08-01T08:28:54;27.90;1.00
29093;DHT22;16167;48.768;14.984;2022-08-01T08:31:22;28.00;1.00
29093;DHT22;16167;48.768;14.984;2022-08-01T08:34:11;28.20;1.00
29093;DHT22;16167;48.768;14.984;2022-08-01T08:36:41;28.30;1.00
29093;DHT22;16167;48.768;14.984;2022-08-01T08:39:13;28.60;1.00
29093;DHT22;16167;48.768;14.984;2022-08-01T08:41:45;28.70;1.00
29093;DHT22;16167;48.768;14.984;2022-08-01T08:44:15;28.80;1.00
29093;DHT22;16167;48.768;14.984;2022-08-01T08:46:45;29.00;1.00
29093;DHT22;16167;48.768;14.984;2022-08-01T08:49:16;29.10;1.00
29093;DHT22;16167;48.768;14.984;2022-08-01T08:51:47;29.20;1.00
29093;DHT22;16167;48.768;14.984;2022-08-01T08:54:15;29.30;1.00
29093;DHT22;16167;48.768;14.984;2022-08-01T08:56:43;29.40;1.00
29093;DHT22;16167;48.768;14.984;2022-08-01T08:59:11;29.50;1.00
29093;DHT22;16167;48.768;14.984;2022-08-01T09:01:40;29.60;1.00
29093;DHT22;16167;48.768;14.984;2022-08-01T09:04:08;29.70;1.00
29093;DHT22;16167;48.768;14.984;2022-08-01T09:06:38;29.90;1.00
29093;DHT22;16167;48.768;14.984;2022-08-01T09:09:09;29.80;1.00
29093;DHT22;16167;48.768;14.984;2022-08-01T09:11:37;29.70;1.00
29093;DHT22;16167;48.768;14.984;2022-08-01T09:14:06;29.70;1.00
29093;DHT22;16167;48.768;14.984;2022-08-01T09:16:35;29.80;1.00
29093;DHT22;16167;48.768;14.984;2022-08-01T09:19:08;30.00;1.00
29093;DHT22;16167;48.768;14.984;2022-08-01T09:21:55;30.20;1.00
29093;DHT22;16167;48.768;14.984;2022-08-01T09:24:24;30.30;1.00
29093;DHT22;16167;48.768;14.984;2022-08-01T09:26:57;30.60;1.00
29093;DHT22;16167;48.768;14.984;2022-08-01T09:29:26;30.70;1.00
29093;DHT22;16167;48.768;14.984;2022-08-01T09:32:04;30.70;1.00
29093;DHT22;16167;48.768;14.984;2022-08-01T09:34:33;30.80;1.00
29093;DHT22;16167;48.768;14.984;2022-08-01T09:37:02;30.90;1.00
29093;DHT22;16167;48.768;14.984;2022-08-01T09:39:34;31.00;1.00
29093;DHT22;16167;48.768;14.984;2022-08-01T09:42:18;31.10;1.00
29093;DHT22;16167;48.768;14.984;2022-08-01T09:44:54;31.20;1.00
29093;DHT22;16167;48.768;14.984;2022-08-01T09:47:22;31.30;1.00
29093;DHT22;16167;48.768;14.984;2022-08-01T09:50:04;31.40;1.00
29093;DHT22;16167;48.768;14.984;2022-08-01T09:52:38;31.60;1.00
29093;DHT22;16167;48.768;14.984;2022-08-01T09:55:07;31.80;1.00
29093;DHT22;16167;48.768;14.984;2022-08-01T09:57:35;31.80;1.00
29093;DHT22;16167;48.768;14.984;2022-08-01T10:00:03;32.10;1.00
29093;DHT22;16167;48.768;14.984;2022-08-01T10:02:32;32.40;1.00
29093;DHT22;16167;48.768;14.984;2022-08-01T10:05:00;31.70;1.00
29093;DHT22;16167;48.768;14.984;2022-08-01T10:07:34;31.20;1.00
29093;DHT22;16167;48.768;14.984;2022-08-01T10:10:11;30.70;1.00
29093;DHT22;16167;48.768;14.984;2022-08-01T10:12:41;30.50;1.00
29093;DHT22;16167;48.768;14.984;2022-08-01T10:15:11;30.40;1.00
29093;DHT22;16167;48.768;14.984;2022-08-01T10:17:45;30.20;1.00
29093;DHT22;16167;48.768;14.984;2022-08-01T10:20:17;29.90;1.00
29093;DHT22;16167;48.768;14.984;2022-08-01T10:22:58;29.80;1.00
29093;DHT22;16167;48.768;14.984;2022-08-01T10:25:33;29.50;1.00
29093;DHT22;16167;48.768;14.984;2022-08-01T10:28:10;29.70;1.00
29093;DHT22;16167;48.768;14.984;2022-08-01T10:30:45;30.10;1.00
29093;DHT22;16167;48.768;14.984;2022-08-01T10:33:14;30.10;1.00
29093;DHT22;16167;48.768;14.984;2022-08-01T10:36:03;30.60;1.00
29093;DHT22;16167;48.768;14.984;2022-08-01T10:38:34;30.80;1.00
29093;DHT22;16167;48.768;14.984;2022-08-01T10:41:05;31.40;1.00
29093;DHT22;16167;48.768;14.984;2022-08-01T10:43:34;31.90;1.00
29093;DHT22;16167;48.768;14.984;2022-08-01T10:46:03;32.10;1.00
29093;DHT22;16167;48.768;14.984;2022-08-01T10:48:34;32.30;1.00
29093;DHT22;16167;48.768;14.984;2022-08-01T10:51:09;31.80;1.00
29093;DHT22;16167;48.768;14.984;2022-08-01T10:53:47;31.30;1.00
29093;DHT22;16167;48.768;14.984;2022-08-01T10:56:21;30.90;1.00
29093;DHT22;16167;48.768;14.984;2022-08-01T10:59:00;30.60;1.00
29093;DHT22;16167;48.768;14.984;2022-08-01T11:01:36;30.30;1.00
29093;DHT22;16167;48.768;14.984;2022-08-01T11:04:11;30.20;1.00
29093;DHT22;16167;48.768;14.984;2022-08-01T11:06:46;30.00;1.00
29093;DHT22;16167;48.768;14.984;2022-08-01T11:09:20;30.00;1.00
29093;DHT22;16167;48.768;14.984;2022-08-01T11:12:07;30.20;1.00
29093;DHT22;16167;48.768;14.984;2022-08-01T11:17:32;31.60;1.00
29093;DHT22;16167;48.768;14.984;2022-08-01T11:20:07;31.20;1.00
29093;DHT22;16167;48.768;14.984;2022-08-01T11:25:22;30.10;1.00
29093;DHT22;16167;48.768;14.984;2022-08-01T11:28:18;29.50;1.00
29093;DHT22;16167;48.768;14.984;2022-08-01T11:33:48;29.00;1.00
29093;DHT22;16167;48.768;14.984;2022-08-01T11:36:17;29.60;1.00
29093;DHT22;16167;48.768;14.984;2022-08-01T11:39:10;29.40;1.00
29093;DHT22;16167;48.768;14.984;2022-08-01T11:41:40;29.20;1.00
29093;DHT22;16167;48.768;14.984;2022-08-01T11:44:13;29.00;1.00
29093;DHT22;16167;48.768;14.984;2022-08-01T11:46:52;28.60;1.00
29093;DHT22;16167;48.768;14.984;2022-08-01T11:49:24;28.30;1.00
29093;DHT22;16167;48.768;14.984;2022-08-01T11:51:58;27.90;1.00
29093;DHT22;16167;48.768;14.984;2022-08-01T11:54:26;27.60;1.00
29093;DHT22;16167;48.768;14.984;2022-08-01T11:57:03;27.40;1.00
29093;DHT22;16167;48.768;14.984;2022-08-01T11:59:41;27.40;1.00
29093;DHT22;16167;48.768;14.984;2022-08-01T12:02:29;27.40;1.00
29093;DHT22;16167;48.768;14.984;2022-08-01T12:05:00;28.10;1.00
29093;DHT22;16167;48.768;14.984;2022-08-01T12:07:32;29.00;1.00
29093;DHT22;16167;48.768;14.984;2022-08-01T12:10:01;30.00;1.00
29093;DHT22;16167;48.768;14.984;2022-08-01T12:12:29;30.60;1.00
29093;DHT22;16167;48.768;14.984;2022-08-01T12:14:59;31.20;1.00
29093;DHT22;16167;48.768;14.984;2022-08-01T12:17:28;31.60;1.00
29093;DHT22;16167;48.768;14.984;2022-08-01T12:19:56;32.00;1.00
29093;DHT22;16167;48.768;14.984;2022-08-01T12:22:24;32.10;1.00
29093;DHT22;16167;48.768;14.984;2022-08-01T12:24:52;32.30;1.00
29093;DHT22;16167;48.768;14.984;2022-08-01T12:27:24;32.70;1.00
29093;DHT22;16167;48.768;14.984;2022-08-01T12:29:52;32.80;1.00
29093;DHT22;16167;48.768;14.984;2022-08-01T12:32:25;32.90;1.00
29093;DHT22;16167;48.768;14.984;2022-08-01T12:35:02;32.80;1.00
29093;DHT22;16167;48.768;14.984;2022-08-01T12:37:31;32.60;1.00
29093;DHT22;16167;48.768;14.984;2022-08-01T12:39:59;32.10;1.00
29093;DHT22;16167;48.768;14.984;2022-08-01T12:42:27;31.40;1.00
29093;DHT22;16167;48.768;14.984;2022-08-01T12:44:55;30.90;1.00
29093;DHT22;16167;48.768;14.984;2022-08-01T12:47:24;30.60;1.00
29093;DHT22;16167;48.768;14.984;2022-08-01T12:49:52;31.40;1.00
29093;DHT22;16167;48.768;14.984;2022-08-01T12:52:20;32.00;1.00
29093;DHT22;16167;48.768;14.984;2022-08-01T12:55:06;32.30;1.00
29093;DHT22;16167;48.768;14.984;2022-08-01T12:57:35;32.90;1.00
29093;DHT22;16167;48.768;14.984;2022-08-01T13:00:04;33.50;1.00
29093;DHT22;16167;48.768;14.984;2022-08-01T13:02:34;33.80;1.00
29093;DHT22;16167;48.768;14.984;2022-08-01T13:05:03;34.10;1.00
29093;DHT22;16167;48.768;14.984;2022-08-01T13:07:34;34.10;1.00
29093;DHT22;16167;48.768;14.984;2022-08-01T13:10:11;33.70;1.00
29093;DHT22;16167;48.768;14.984;2022-08-01T13:12:40;33.80;1.00
29093;DHT22;16167;48.768;14.984;2022-08-01T13:15:18;33.90;1.00
29093;DHT22;16167;48.768;14.984;2022-08-01T13:17:47;33.30;1.00
29093;DHT22;16167;48.768;14.984;2022-08-01T13:20:25;32.70;1.00
29093;DHT22;16167;48.768;14.984;2022-08-01T13:22:53;32.30;1.00
29093;DHT22;16167;48.768;14.984;2022-08-01T13:25:22;31.90;1.00
29093;DHT22;16167;48.768;14.984;2022-08-01T13:30:35;32.00;1.00
29093;DHT22;16167;48.768;14.984;2022-08-01T13:33:04;32.20;1.00
29093;DHT22;16167;48.768;14.984;2022-08-01T13:35:32;32.30;1.00
29093;DHT22;16167;48.768;14.984;2022-08-01T13:38:00;32.50;1.00
29093;DHT22;16167;48.768;14.984;2022-08-01T13:40:28;32.30;1.00
29093;DHT22;16167;48.768;14.984;2022-08-01T13:42:56;31.70;1.00
29093;DHT22;16167;48.768;14.984;2022-08-01T13:45:24;31.40;1.00
29093;DHT22;16167;48.768;14.984;2022-08-01T13:47:52;31.10;1.00
29093;DHT22;16167;48.768;14.984;2022-08-01T13:50:40;31.00;1.00
29093;DHT22;16167;48.768;14.984;2022-08-01T13:53:08;30.90;1.00
29093;DHT22;16167;48.768;14.984;2022-08-01T13:55:36;30.70;1.00
29093;DHT22;16167;48.768;14.984;2022-08-01T13:58:04;30.50;1.00
29093;DHT22;16167;48.768;14.984;2022-08-01T14:00:32;30.40;1.00
29093;DHT22;16167;48.768;14.984;2022-08-01T14:03:01;30.40;1.00
29093;DHT22;16167;48.768;14.984;2022-08-01T14:05:29;30.30;1.00
29093;DHT22;16167;48.768;14.984;2022-08-01T14:07:58;30.80;1.00
29093;DHT22;16167;48.768;14.984;2022-08-01T14:10:27;31.90;1.00
29093;DHT22;16167;48.768;14.984;2022-08-01T14:12:56;32.80;1.00
29093;DHT22;16167;48.768;14.984;2022-08-01T14:15:24;32.70;1.00
29093;DHT22;16167;48.768;14.984;2022-08-01T14:18:05;32.70;1.00
29093;DHT22;16167;48.768;14.984;2022-08-01T14:20:35;33.00;1.00
29093;DHT22;16167;48.768;14.984;2022-08-01T14:23:04;33.20;1.00
29093;DHT22;16167;48.768;14.984;2022-08-01T14:25:34;33.10;1.00
29093;DHT22;16167;48.768;14.984;2022-08-01T14:28:22;33.50;1.00
29093;DHT22;16167;48.768;14.984;2022-08-01T14:30:51;33.60;1.00
29093;DHT22;16167;48.768;14.984;2022-08-01T14:33:21;33.50;1.00
29093;DHT22;16167;48.768;14.984;2022-08-01T14:35:50;33.50;1.00
29093;DHT22;16167;48.768;14.984;2022-08-01T14:38:33;33.70;1.00
29093;DHT22;16167;48.768;14.984;2022-08-01T14:41:01;33.90;1.00
29093;DHT22;16167;48.768;14.984;2022-08-01T14:43:30;34.10;1.00
29093;DHT22;16167;48.768;14.984;2022-08-01T14:46:00;34.10;1.00
29093;DHT22;16167;48.768;14.984;2022-08-01T14:48:29;34.20;1.00
29093;DHT22;16167;48.768;14.984;2022-08-01T14:50:57;34.20;1.00
29093;DHT22;16167;48.768;14.984;2022-08-01T14:53:28;34.20;1.00
29093;DHT22;16167;48.768;14.984;2022-08-01T14:55:58;34.00;1.00
29093;DHT22;16167;48.768;14.984;2022-08-01T14:58:26;33.90;1.00
29093;DHT22;16167;48.768;14.984;2022-08-01T15:00:54;33.80;1.00
29093;DHT22;16167;48.768;14.984;2022-08-01T15:03:25;33.70;1.00
29093;DHT22;16167;48.768;14.984;2022-08-01T15:05:53;33.10;1.00
29093;DHT22;16167;48.768;14.984;2022-08-01T15:08:21;32.60;1.00
29093;DHT22;16167;48.768;14.984;2022-08-01T15:10:48;32.20;1.00
29093;DHT22;16167;48.768;14.984;2022-08-01T15:13:18;31.80;1.00
29093;DHT22;16167;48.768;14.984;2022-08-01T15:15:45;31.50;1.00
29093;DHT22;16167;48.768;14.984;2022-08-01T15:18:13;31.50;1.00
29093;DHT22;16167;48.768;14.984;2022-08-01T15:20:41;31.60;1.00
29093;DHT22;16167;48.768;14.984;2022-08-01T15:23:09;31.70;1.00
29093;DHT22;16167;48.768;14.984;2022-08-01T15:25:37;31.90;1.00
29093;DHT22;16167;48.768;14.984;2022-08-01T15:28:07;32.00;1.00
29093;DHT22;16167;48.768;14.984;2022-08-01T15:30:37;32.30;1.00
29093;DHT22;16167;48.768;14.984;2022-08-01T15:33:05;32.40;1.00
29093;DHT22;16167;48.768;14.984;2022-08-01T15:35:33;32.50;1.00
29093;DHT22;16167;48.768;14.984;2022-08-01T15:38:00;32.50;1.00
29093;DHT22;16167;48.768;14.984;2022-08-01T15:40:28;32.60;1.00
29093;DHT22;16167;48.768;14.984;2022-08-01T15:43:00;32.60;1.00
29093;DHT22;16167;48.768;14.984;2022-08-01T15:45:28;32.40;1.00
29093;DHT22;16167;48.768;14.984;2022-08-01T15:48:14;32.00;1.00
29093;DHT22;16167;48.768;14.984;2022-08-01T15:50:42;31.50;1.00
29093;DHT22;16167;48.768;14.984;2022-08-01T15:53:10;31.10;1.00
29093;DHT22;16167;48.768;14.984;2022-08-01T15:55:38;31.10;1.00
29093;DHT22;16167;48.768;14.984;2022-08-01T15:58:06;31.00;1.00
29093;DHT22;16167;48.768;14.984;2022-08-01T16:00:37;31.00;1.00
29093;DHT22;16167;48.768;14.984;2022-08-01T16:03:05;30.60;1.00